Погода Поланецна 2 недели

Свентокшиское воеводство, Польша

25 июля-07 августа
  • 25июля
    Сегодня
    +12°
    +22°
    Небольшая облачность
    ВремяПогодаТемператураВлажностьДавлениеВетер, м/сВероятность осадков
    02:00Небольшая облачность+15°C95 %744 мм2.4 м/с33 %
    05:00Небольшая облачность, ливень+14°C95 %744 мм3.4 м/с63 %
    08:00Пасмурно, ливень+17°C87 %744 мм3.9 м/с73 %
    11:00Облачно с прояснениями+20°C69 %744 мм5.0 м/с42 %
    14:00Небольшая облачность+21°C55 %744 мм5.0 м/с28 %
    17:00Практически безоблачно+21°C46 %743 мм5.2 м/с28 %
    20:00Практически безоблачно+20°C58 %744 мм2.7 м/с6 %
    23:00Ясно и безоблачно+16°C64 %744 мм3.2 м/с2 %
  • 26июля
    Пятница
    +14°
    +24°
    Облачно с прояснениями
    ВремяПогодаТемператураВлажностьДавлениеВетер, м/сВероятность осадков
    02:00Ясно и безоблачно+15°C63 %744 мм3.7 м/с1 %
    05:00Ясно и безоблачно+13°C70 %744 мм2.9 м/с2 %
    08:00Ясно и безоблачно+17°C72 %745 мм2.5 м/с3 %
    11:00Облачно с прояснениями+21°C60 %745 мм4.1 м/с36 %
    14:00Облачно с прояснениями+23°C55 %745 мм3.5 м/с46 %
    17:00Практически безоблачно+24°C52 %745 мм2.6 м/с39 %
    20:00Облачно с прояснениями+21°C75 %746 мм1.8 м/с11 %
    23:00Облачно с прояснениями+17°C88 %747 мм1.5 м/с2 %
  • 27июля
    Суббота
    +18°
    +28°
    Облачно с прояснениями
    ВремяПогодаТемператураВлажностьДавлениеВетер, м/сВероятность осадков
    02:00Ясно и безоблачно+16°C93 %747 мм2.0 м/с2 %
    05:00Ясно и безоблачно+15°C91 %747 мм0.9 м/с2 %
    08:00Ясно и безоблачно+19°C74 %748 мм1.1 м/с2 %
    11:00Облачно с прояснениями+25°C47 %748 мм1.8 м/с2 %
    14:00Облачно с прояснениями+27°C37 %748 мм1.6 м/с2 %
    17:00Практически безоблачно+28°C36 %748 мм1.0 м/с2 %
    20:00Облачно с прояснениями+24°C57 %748 мм2.0 м/с2 %
    23:00Облачно с прояснениями+22°C49 %747 мм3.4 м/с2 %
  • 28июля
    Воскресенье
    +14°
    +32°
    Ясно и безоблачно
    ВремяПогодаТемператураВлажностьДавлениеВетер, м/сВероятность осадков
    02:00Облачно с прояснениями+19°C65 %747 мм2.5 м/с2 %
    05:00Небольшая облачность+18°C64 %747 мм2.6 м/с2 %
    08:00Небольшая облачность+23°C59 %748 мм2.5 м/с5 %
    11:00Практически безоблачно+30°C42 %748 мм3.8 м/с7 %
    14:00Ясно и безоблачно+32°C35 %747 мм4.8 м/с19 %
    17:00Практически безоблачно+28°C40 %745 мм4.7 м/с37 %
    20:00Облачно с прояснениями, ливень+24°C83 %747 мм5.3 м/с30 %
    23:00Пасмурно, ливень+18°C79 %750 мм4.9 м/с20 %
  • 29июля
    Понедельник
    +12°
    +24°
    Ясно и безоблачно
    ВремяПогодаТемператураВлажностьДавлениеВетер, м/сВероятность осадков
    02:00Практически безоблачно+17°C78 %751 мм3.3 м/с24 %
    05:00Ясно и безоблачно+15°C85 %752 мм3.1 м/с29 %
    08:00Ясно и безоблачно+17°C77 %752 мм3.9 м/с28 %
    11:00Ясно и безоблачно+21°C54 %752 мм4.6 м/с21 %
    14:00Ясно и безоблачно+23°C39 %751 мм5.3 м/с10 %
    17:00Ясно и безоблачно+23°C40 %750 мм5.5 м/с2 %
    20:00Ясно и безоблачно+21°C50 %750 мм3.1 м/с4 %
    23:00Ясно и безоблачно+17°C59 %750 мм3.0 м/с4 %
Мы используем cookies
Соглашаюсь